Strona główna
METAR-TAF:

METAR-TAF

Lotnisko :

Port lotniczy Katowice-Pyrzowice

Katowice, Polska

Szerokość geograficzna: 50-28-27N, Długość geograficzna: 019-04-48E, wysokość: 284 m

Aktualna obserwacja pogody

Raport powstał 13 minut temu, godzina 02:30 UTC
Wiatr 1 kt od północny zachód
Temperatura 8°C
Wilgotność 93%
Ciśnienie 1020 hPa
Widzialność: 7000 m

METAR: EPKT 180230Z 32001KT 7000 NSC 08/07 Q1020

czas: 04:43 (02:43 UTC)

Prognoza

Raport powstał 3 godziny i 13 minut temu, godzina 23:30 UTC
Prognoza ważna od 18 godzina 00 UTC do 18 godzina 24 UTC
Wiatr 2 kt z kierunków zmiennych
Widzialność: 8000 m
Przejściowo
od 18 godzina 02 UTC do 18 godzina 07 UTC
Widzialność: 3000 m
zamglenie
Prawdopodobieństwo 40% :
Przejściowo
od 18 godzina 07 UTC do 18 godzina 12 UTC
Przerywane chmury na wysokości 4000 ft, Cumulusy wypiętrznone.

TAF: EPKT 172330Z 1800/1824 VRB02KT 8000 NSC TEMPO 1802/1807 3000 BR PROB40 TEMPO 1807/1812 BKN040TCU

Obserwacja i prognoza pogody dla ponad 4000 lotnisk (raport METAR i TAF).

Dostępne stacje oznaczono żółtymi i czerwonymi punktami na mapie.

Najedź kursorem aby zobaczyć nazwę stacji.

Kliknij aby zobaczyć obserwacje i prognozy pogody.

Aby zmienić mapę: kliknij na zielony przycisk z czarnym krzyżykiem, aby powiększyć; na zielony przycisk z myślnikiem, aby pomniejszyć; na zielone strzałki, aby przejść do map sąsiednich.


METAR-TAF: